sensor_id;sensor_type;location;lat;lon;timestamp;P1;durP1;ratioP1;P2;durP2;ratioP2
53309;SDS011;39197;53.200;5.792;2023-06-22T00:00:52;26.23;;;23.40;;
53309;SDS011;39197;53.200;5.792;2023-06-22T00:03:19;30.05;;;26.92;;
53309;SDS011;39197;53.200;5.792;2023-06-22T00:05:46;32.15;;;28.70;;
53309;SDS011;39197;53.200;5.792;2023-06-22T00:08:12;32.40;;;27.30;;
53309;SDS011;39197;53.200;5.792;2023-06-22T00:10:38;32.47;;;27.77;;
53309;SDS011;39197;53.200;5.792;2023-06-22T00:13:03;34.90;;;30.80;;
53309;SDS011;39197;53.200;5.792;2023-06-22T00:15:29;34.63;;;30.73;;
53309;SDS011;39197;53.200;5.792;2023-06-22T00:17:55;33.97;;;30.35;;
53309;SDS011;39197;53.200;5.792;2023-06-22T00:20:22;33.05;;;29.45;;
53309;SDS011;39197;53.200;5.792;2023-06-22T00:22:48;35.47;;;30.98;;
53309;SDS011;39197;53.200;5.792;2023-06-22T00:25:13;34.60;;;30.55;;
53309;SDS011;39197;53.200;5.792;2023-06-22T00:27:39;38.33;;;30.58;;
53309;SDS011;39197;53.200;5.792;2023-06-22T00:30:05;36.47;;;31.10;;
53309;SDS011;39197;53.200;5.792;2023-06-22T00:32:31;31.75;;;28.25;;
53309;SDS011;39197;53.200;5.792;2023-06-22T00:34:57;31.65;;;28.33;;
53309;SDS011;39197;53.200;5.792;2023-06-22T00:37:22;32.00;;;28.45;;
53309;SDS011;39197;53.200;5.792;2023-06-22T00:39:50;32.90;;;29.35;;
53309;SDS011;39197;53.200;5.792;2023-06-22T00:42:16;31.42;;;27.92;;
53309;SDS011;39197;53.200;5.792;2023-06-22T00:44:42;31.40;;;26.23;;
53309;SDS011;39197;53.200;5.792;2023-06-22T00:47:10;32.17;;;28.40;;
53309;SDS011;39197;53.200;5.792;2023-06-22T00:49:38;30.67;;;27.38;;
53309;SDS011;39197;53.200;5.792;2023-06-22T00:52:04;34.85;;;31.17;;
53309;SDS011;39197;53.200;5.792;2023-06-22T00:54:34;36.22;;;32.30;;
53309;SDS011;39197;53.200;5.792;2023-06-22T00:57:01;43.78;;;33.63;;
53309;SDS011;39197;53.200;5.792;2023-06-22T00:59:27;46.53;;;41.08;;
53309;SDS011;39197;53.200;5.792;2023-06-22T01:01:53;35.63;;;31.63;;
53309;SDS011;39197;53.200;5.792;2023-06-22T01:04:19;31.05;;;27.73;;
53309;SDS011;39197;53.200;5.792;2023-06-22T01:07:10;28.27;;;25.33;;
53309;SDS011;39197;53.200;5.792;2023-06-22T01:09:37;35.67;;;28.60;;
53309;SDS011;39197;53.200;5.792;2023-06-22T01:12:10;35.42;;;30.08;;
53309;SDS011;39197;53.200;5.792;2023-06-22T01:17:45;25.10;;;22.60;;
53309;SDS011;39197;53.200;5.792;2023-06-22T01:20:14;32.15;;;28.75;;
53309;SDS011;39197;53.200;5.792;2023-06-22T01:22:46;32.22;;;28.85;;
53309;SDS011;39197;53.200;5.792;2023-06-22T01:31:07;24.70;;;22.08;;
53309;SDS011;39197;53.200;5.792;2023-06-22T01:33:37;22.30;;;20.08;;
53309;SDS011;39197;53.200;5.792;2023-06-22T01:36:07;22.60;;;20.63;;
53309;SDS011;39197;53.200;5.792;2023-06-22T01:38:33;22.10;;;19.90;;
53309;SDS011;39197;53.200;5.792;2023-06-22T01:41:00;23.80;;;21.50;;
53309;SDS011;39197;53.200;5.792;2023-06-22T01:43:27;31.33;;;28.27;;
53309;SDS011;39197;53.200;5.792;2023-06-22T01:45:54;30.08;;;27.20;;
53309;SDS011;39197;53.200;5.792;2023-06-22T01:48:20;34.50;;;30.90;;
53309;SDS011;39197;53.200;5.792;2023-06-22T01:50:47;27.20;;;24.67;;
53309;SDS011;39197;53.200;5.792;2023-06-22T01:53:13;28.88;;;26.13;;
53309;SDS011;39197;53.200;5.792;2023-06-22T01:55:38;26.80;;;24.30;;
53309;SDS011;39197;53.200;5.792;2023-06-22T01:58:04;26.00;;;23.55;;
53309;SDS011;39197;53.200;5.792;2023-06-22T02:00:34;28.80;;;24.92;;
53309;SDS011;39197;53.200;5.792;2023-06-22T02:03:05;27.92;;;25.33;;
53309;SDS011;39197;53.200;5.792;2023-06-22T02:05:37;28.08;;;25.38;;
53309;SDS011;39197;53.200;5.792;2023-06-22T02:10:43;35.75;;;32.20;;
53309;SDS011;39197;53.200;5.792;2023-06-22T02:13:11;32.83;;;29.75;;
53309;SDS011;39197;53.200;5.792;2023-06-22T02:15:39;30.92;;;27.83;;
53309;SDS011;39197;53.200;5.792;2023-06-22T02:18:05;31.05;;;27.95;;
53309;SDS011;39197;53.200;5.792;2023-06-22T02:20:30;34.00;;;30.50;;
53309;SDS011;39197;53.200;5.792;2023-06-22T02:22:56;29.73;;;27.02;;
53309;SDS011;39197;53.200;5.792;2023-06-22T02:25:22;35.65;;;32.45;;
53309;SDS011;39197;53.200;5.792;2023-06-22T02:27:47;42.58;;;38.22;;
53309;SDS011;39197;53.200;5.792;2023-06-22T02:30:13;32.83;;;29.58;;
53309;SDS011;39197;53.200;5.792;2023-06-22T02:32:40;37.42;;;33.85;;
53309;SDS011;39197;53.200;5.792;2023-06-22T02:35:07;39.65;;;35.85;;
53309;SDS011;39197;53.200;5.792;2023-06-22T02:37:33;37.65;;;33.72;;
53309;SDS011;39197;53.200;5.792;2023-06-22T02:40:01;41.15;;;36.42;;
53309;SDS011;39197;53.200;5.792;2023-06-22T02:42:28;41.10;;;37.05;;
53309;SDS011;39197;53.200;5.792;2023-06-22T02:44:53;37.65;;;34.05;;
53309;SDS011;39197;53.200;5.792;2023-06-22T02:47:19;34.40;;;30.85;;
53309;SDS011;39197;53.200;5.792;2023-06-22T02:49:45;34.80;;;31.25;;
53309;SDS011;39197;53.200;5.792;2023-06-22T02:52:11;42.22;;;38.03;;
53309;SDS011;39197;53.200;5.792;2023-06-22T02:54:37;37.35;;;33.67;;
53309;SDS011;39197;53.200;5.792;2023-06-22T02:57:02;34.95;;;31.65;;
53309;SDS011;39197;53.200;5.792;2023-06-22T02:59:28;39.03;;;35.03;;
53309;SDS011;39197;53.200;5.792;2023-06-22T03:01:54;37.10;;;33.63;;
53309;SDS011;39197;53.200;5.792;2023-06-22T03:04:20;33.67;;;30.38;;
53309;SDS011;39197;53.200;5.792;2023-06-22T03:06:46;36.20;;;32.90;;
53309;SDS011;39197;53.200;5.792;2023-06-22T03:09:16;32.85;;;29.85;;
53309;SDS011;39197;53.200;5.792;2023-06-22T03:11:42;36.67;;;33.40;;
53309;SDS011;39197;53.200;5.792;2023-06-22T03:14:08;37.83;;;34.50;;
53309;SDS011;39197;53.200;5.792;2023-06-22T03:16:33;34.83;;;31.73;;
53309;SDS011;39197;53.200;5.792;2023-06-22T03:18:59;36.75;;;33.20;;
53309;SDS011;39197;53.200;5.792;2023-06-22T03:21:27;35.13;;;32.00;;
53309;SDS011;39197;53.200;5.792;2023-06-22T03:23:53;31.83;;;29.08;;
53309;SDS011;39197;53.200;5.792;2023-06-22T03:26:19;34.55;;;31.35;;
53309;SDS011;39197;53.200;5.792;2023-06-22T03:28:45;39.42;;;35.45;;
53309;SDS011;39197;53.200;5.792;2023-06-22T03:31:11;32.45;;;29.65;;
53309;SDS011;39197;53.200;5.792;2023-06-22T03:33:37;31.88;;;29.05;;
53309;SDS011;39197;53.200;5.792;2023-06-22T03:36:02;36.00;;;32.90;;
53309;SDS011;39197;53.200;5.792;2023-06-22T03:38:28;33.80;;;30.98;;
53309;SDS011;39197;53.200;5.792;2023-06-22T03:40:54;34.88;;;31.77;;
53309;SDS011;39197;53.200;5.792;2023-06-22T03:43:20;35.40;;;32.20;;
53309;SDS011;39197;53.200;5.792;2023-06-22T03:45:45;28.15;;;25.95;;
53309;SDS011;39197;53.200;5.792;2023-06-22T03:48:11;32.28;;;29.58;;
53309;SDS011;39197;53.200;5.792;2023-06-22T03:50:37;24.35;;;22.25;;
53309;SDS011;39197;53.200;5.792;2023-06-22T03:53:03;28.17;;;25.75;;
53309;SDS011;39197;53.200;5.792;2023-06-22T03:55:28;25.70;;;23.45;;
53309;SDS011;39197;53.200;5.792;2023-06-22T03:57:55;25.88;;;23.85;;
53309;SDS011;39197;53.200;5.792;2023-06-22T04:00:22;26.23;;;24.08;;
53309;SDS011;39197;53.200;5.792;2023-06-22T04:02:48;25.58;;;23.33;;
53309;SDS011;39197;53.200;5.792;2023-06-22T04:05:14;27.52;;;25.23;;
53309;SDS011;39197;53.200;5.792;2023-06-22T04:07:39;21.92;;;20.13;;
53309;SDS011;39197;53.200;5.792;2023-06-22T04:10:05;17.83;;;16.45;;
53309;SDS011;39197;53.200;5.792;2023-06-22T04:12:32;21.40;;;19.67;;
53309;SDS011;39197;53.200;5.792;2023-06-22T04:14:58;20.67;;;18.90;;
53309;SDS011;39197;53.200;5.792;2023-06-22T04:17:24;19.63;;;18.13;;
53309;SDS011;39197;53.200;5.792;2023-06-22T04:19:50;21.38;;;19.67;;
53309;SDS011;39197;53.200;5.792;2023-06-22T04:22:16;16.45;;;14.98;;
53309;SDS011;39197;53.200;5.792;2023-06-22T04:24:42;15.60;;;14.35;;
53309;SDS011;39197;53.200;5.792;2023-06-22T04:27:07;19.08;;;17.58;;
53309;SDS011;39197;53.200;5.792;2023-06-22T04:29:33;20.50;;;18.88;;
53309;SDS011;39197;53.200;5.792;2023-06-22T04:31:58;20.40;;;18.70;;
53309;SDS011;39197;53.200;5.792;2023-06-22T04:34:28;19.80;;;18.20;;
53309;SDS011;39197;53.200;5.792;2023-06-22T04:36:54;19.55;;;18.15;;
53309;SDS011;39197;53.200;5.792;2023-06-22T04:39:20;18.42;;;16.95;;
53309;SDS011;39197;53.200;5.792;2023-06-22T04:41:46;18.67;;;17.27;;
53309;SDS011;39197;53.200;5.792;2023-06-22T04:46:38;26.85;;;24.58;;
53309;SDS011;39197;53.200;5.792;2023-06-22T04:49:07;28.05;;;25.55;;
53309;SDS011;39197;53.200;5.792;2023-06-22T04:51:41;26.20;;;23.75;;
53309;SDS011;39197;53.200;5.792;2023-06-22T04:54:07;25.10;;;22.90;;
53309;SDS011;39197;53.200;5.792;2023-06-22T04:56:33;27.20;;;24.70;;
53309;SDS011;39197;53.200;5.792;2023-06-22T04:58:59;28.77;;;25.80;;
53309;SDS011;39197;53.200;5.792;2023-06-22T05:01:25;29.80;;;26.85;;
53309;SDS011;39197;53.200;5.792;2023-06-22T05:03:51;29.55;;;26.48;;
53309;SDS011;39197;53.200;5.792;2023-06-22T05:06:20;31.25;;;28.05;;
53309;SDS011;39197;53.200;5.792;2023-06-22T05:08:49;30.95;;;27.45;;
53309;SDS011;39197;53.200;5.792;2023-06-22T05:11:17;29.67;;;26.63;;
53309;SDS011;39197;53.200;5.792;2023-06-22T05:13:42;30.95;;;27.70;;
53309;SDS011;39197;53.200;5.792;2023-06-22T05:16:08;27.15;;;24.35;;
53309;SDS011;39197;53.200;5.792;2023-06-22T05:18:33;30.73;;;27.40;;
53309;SDS011;39197;53.200;5.792;2023-06-22T05:21:00;28.73;;;25.70;;
53309;SDS011;39197;53.200;5.792;2023-06-22T05:23:25;26.98;;;24.20;;
53309;SDS011;39197;53.200;5.792;2023-06-22T05:25:51;27.63;;;24.75;;
53309;SDS011;39197;53.200;5.792;2023-06-22T05:28:17;27.17;;;24.38;;
53309;SDS011;39197;53.200;5.792;2023-06-22T05:30:47;29.27;;;26.25;;
53309;SDS011;39197;53.200;5.792;2023-06-22T05:33:13;27.88;;;25.05;;
53309;SDS011;39197;53.200;5.792;2023-06-22T05:35:39;29.02;;;26.17;;
53309;SDS011;39197;53.200;5.792;2023-06-22T05:38:07;29.40;;;24.67;;
53309;SDS011;39197;53.200;5.792;2023-06-22T05:40:32;29.08;;;25.83;;
53309;SDS011;39197;53.200;5.792;2023-06-22T05:42:58;26.17;;;23.48;;
53309;SDS011;39197;53.200;5.792;2023-06-22T05:45:25;25.42;;;22.73;;
53309;SDS011;39197;53.200;5.792;2023-06-22T05:47:51;27.63;;;24.70;;
53309;SDS011;39197;53.200;5.792;2023-06-22T05:50:16;28.05;;;25.10;;
53309;SDS011;39197;53.200;5.792;2023-06-22T05:52:42;25.77;;;23.08;;
53309;SDS011;39197;53.200;5.792;2023-06-22T05:55:08;25.08;;;22.45;;
53309;SDS011;39197;53.200;5.792;2023-06-22T05:57:34;26.30;;;23.50;;
53309;SDS011;39197;53.200;5.792;2023-06-22T05:59:59;25.33;;;21.73;;
53309;SDS011;39197;53.200;5.792;2023-06-22T06:02:25;23.25;;;20.83;;
53309;SDS011;39197;53.200;5.792;2023-06-22T06:04:50;22.10;;;19.77;;
53309;SDS011;39197;53.200;5.792;2023-06-22T06:07:17;22.42;;;19.92;;
53309;SDS011;39197;53.200;5.792;2023-06-22T06:09:43;19.75;;;17.50;;
53309;SDS011;39197;53.200;5.792;2023-06-22T06:12:09;18.10;;;16.40;;
53309;SDS011;39197;53.200;5.792;2023-06-22T06:14:34;21.80;;;18.30;;
53309;SDS011;39197;53.200;5.792;2023-06-22T06:17:00;21.25;;;19.13;;
53309;SDS011;39197;53.200;5.792;2023-06-22T06:19:26;19.42;;;17.63;;
53309;SDS011;39197;53.200;5.792;2023-06-22T06:21:51;20.38;;;18.25;;
53309;SDS011;39197;53.200;5.792;2023-06-22T06:24:17;18.63;;;16.83;;
53309;SDS011;39197;53.200;5.792;2023-06-22T06:26:43;19.08;;;16.27;;
53309;SDS011;39197;53.200;5.792;2023-06-22T06:29:08;21.73;;;19.42;;
53309;SDS011;39197;53.200;5.792;2023-06-22T06:31:34;16.23;;;14.52;;
53309;SDS011;39197;53.200;5.792;2023-06-22T06:34:00;16.63;;;14.30;;
53309;SDS011;39197;53.200;5.792;2023-06-22T06:36:25;18.30;;;14.73;;
53309;SDS011;39197;53.200;5.792;2023-06-22T06:38:51;15.18;;;13.57;;
53309;SDS011;39197;53.200;5.792;2023-06-22T06:41:17;14.52;;;13.07;;
53309;SDS011;39197;53.200;5.792;2023-06-22T06:43:42;15.77;;;14.13;;
53309;SDS011;39197;53.200;5.792;2023-06-22T06:46:08;13.60;;;11.35;;
53309;SDS011;39197;53.200;5.792;2023-06-22T06:48:34;12.57;;;11.32;;
53309;SDS011;39197;53.200;5.792;2023-06-22T06:51:00;13.18;;;11.27;;
53309;SDS011;39197;53.200;5.792;2023-06-22T06:53:26;12.98;;;11.77;;
53309;SDS011;39197;53.200;5.792;2023-06-22T06:55:52;12.45;;;11.15;;
53309;SDS011;39197;53.200;5.792;2023-06-22T06:58:17;16.40;;;14.07;;
53309;SDS011;39197;53.200;5.792;2023-06-22T07:00:43;12.85;;;11.57;;
53309;SDS011;39197;53.200;5.792;2023-06-22T07:03:09;17.90;;;14.32;;
53309;SDS011;39197;53.200;5.792;2023-06-22T07:05:34;14.88;;;13.38;;
53309;SDS011;39197;53.200;5.792;2023-06-22T07:08:00;13.05;;;11.75;;
53309;SDS011;39197;53.200;5.792;2023-06-22T07:10:27;17.65;;;14.88;;
53309;SDS011;39197;53.200;5.792;2023-06-22T07:12:54;12.82;;;9.52;;
53309;SDS011;39197;53.200;5.792;2023-06-22T07:15:19;16.20;;;14.18;;
53309;SDS011;39197;53.200;5.792;2023-06-22T07:17:45;13.13;;;11.82;;
53309;SDS011;39197;53.200;5.792;2023-06-22T07:20:11;13.35;;;12.02;;
53309;SDS011;39197;53.200;5.792;2023-06-22T07:22:41;13.05;;;11.68;;
53309;SDS011;39197;53.200;5.792;2023-06-22T07:25:08;12.95;;;11.65;;
53309;SDS011;39197;53.200;5.792;2023-06-22T07:27:38;12.32;;;10.98;;
53309;SDS011;39197;53.200;5.792;2023-06-22T07:30:08;13.38;;;12.00;;
53309;SDS011;39197;53.200;5.792;2023-06-22T07:32:34;14.32;;;12.00;;
53309;SDS011;39197;53.200;5.792;2023-06-22T07:35:01;12.40;;;11.15;;
53309;SDS011;39197;53.200;5.792;2023-06-22T07:37:27;13.18;;;11.80;;
53309;SDS011;39197;53.200;5.792;2023-06-22T07:39:54;12.73;;;10.80;;
53309;SDS011;39197;53.200;5.792;2023-06-22T07:42:24;11.50;;;10.32;;
53309;SDS011;39197;53.200;5.792;2023-06-22T07:44:53;11.93;;;10.40;;
53309;SDS011;39197;53.200;5.792;2023-06-22T07:47:20;11.90;;;10.75;;
53309;SDS011;39197;53.200;5.792;2023-06-22T07:49:50;11.05;;;10.07;;
53309;SDS011;39197;53.200;5.792;2023-06-22T07:52:15;13.13;;;10.38;;
53309;SDS011;39197;53.200;5.792;2023-06-22T07:54:41;9.77;;;8.80;;
53309;SDS011;39197;53.200;5.792;2023-06-22T07:57:06;9.82;;;8.93;;
53309;SDS011;39197;53.200;5.792;2023-06-22T07:59:32;12.57;;;11.27;;
53309;SDS011;39197;53.200;5.792;2023-06-22T08:01:57;11.85;;;10.65;;
53309;SDS011;39197;53.200;5.792;2023-06-22T08:04:23;11.50;;;10.40;;
53309;SDS011;39197;53.200;5.792;2023-06-22T08:06:49;11.10;;;10.00;;
53309;SDS011;39197;53.200;5.792;2023-06-22T08:09:14;12.18;;;10.95;;
53309;SDS011;39197;53.200;5.792;2023-06-22T08:11:40;11.43;;;10.00;;
53309;SDS011;39197;53.200;5.792;2023-06-22T08:14:06;11.18;;;10.18;;
53309;SDS011;39197;53.200;5.792;2023-06-22T08:16:31;9.65;;;8.60;;
53309;SDS011;39197;53.200;5.792;2023-06-22T08:18:57;13.02;;;11.18;;
53309;SDS011;39197;53.200;5.792;2023-06-22T08:21:22;13.27;;;10.68;;
53309;SDS011;39197;53.200;5.792;2023-06-22T08:23:48;13.00;;;11.65;;
53309;SDS011;39197;53.200;5.792;2023-06-22T08:26:14;14.48;;;13.07;;
53309;SDS011;39197;53.200;5.792;2023-06-22T08:28:40;11.90;;;10.45;;
53309;SDS011;39197;53.200;5.792;2023-06-22T08:31:05;12.35;;;10.32;;
53309;SDS011;39197;53.200;5.792;2023-06-22T08:33:31;10.55;;;9.38;;
53309;SDS011;39197;53.200;5.792;2023-06-22T08:35:58;10.10;;;9.10;;
53309;SDS011;39197;53.200;5.792;2023-06-22T08:38:25;11.25;;;10.02;;
53309;SDS011;39197;53.200;5.792;2023-06-22T08:40:51;11.63;;;10.43;;
53309;SDS011;39197;53.200;5.792;2023-06-22T08:43:16;12.57;;;11.27;;
53309;SDS011;39197;53.200;5.792;2023-06-22T08:45:42;15.45;;;13.63;;
53309;SDS011;39197;53.200;5.792;2023-06-22T08:48:07;10.43;;;9.43;;
53309;SDS011;39197;53.200;5.792;2023-06-22T08:50:33;8.13;;;7.32;;
53309;SDS011;39197;53.200;5.792;2023-06-22T08:52:59;8.55;;;7.70;;
53309;SDS011;39197;53.200;5.792;2023-06-22T08:55:24;10.75;;;8.98;;
53309;SDS011;39197;53.200;5.792;2023-06-22T08:57:50;11.48;;;8.77;;
53309;SDS011;39197;53.200;5.792;2023-06-22T09:00:16;9.60;;;8.20;;
53309;SDS011;39197;53.200;5.792;2023-06-22T09:02:45;9.32;;;7.93;;
53309;SDS011;39197;53.200;5.792;2023-06-22T09:05:12;9.15;;;8.20;;
53309;SDS011;39197;53.200;5.792;2023-06-22T09:07:38;6.75;;;6.03;;
53309;SDS011;39197;53.200;5.792;2023-06-22T09:10:03;6.78;;;6.07;;
53309;SDS011;39197;53.200;5.792;2023-06-22T09:12:30;6.88;;;6.18;;
53309;SDS011;39197;53.200;5.792;2023-06-22T09:14:57;7.00;;;6.32;;
53309;SDS011;39197;53.200;5.792;2023-06-22T09:17:25;8.35;;;6.88;;
53309;SDS011;39197;53.200;5.792;2023-06-22T09:19:51;8.10;;;7.30;;
53309;SDS011;39197;53.200;5.792;2023-06-22T09:22:16;8.02;;;7.25;;
53309;SDS011;39197;53.200;5.792;2023-06-22T09:24:42;8.25;;;7.45;;
53309;SDS011;39197;53.200;5.792;2023-06-22T09:27:08;6.75;;;6.03;;
53309;SDS011;39197;53.200;5.792;2023-06-22T09:29:33;8.00;;;7.20;;
53309;SDS011;39197;53.200;5.792;2023-06-22T09:31:59;8.30;;;7.53;;
53309;SDS011;39197;53.200;5.792;2023-06-22T09:34:25;7.05;;;6.28;;
53309;SDS011;39197;53.200;5.792;2023-06-22T09:36:51;7.30;;;6.10;;
53309;SDS011;39197;53.200;5.792;2023-06-22T09:39:19;7.43;;;6.72;;
53309;SDS011;39197;53.200;5.792;2023-06-22T09:41:45;9.35;;;7.43;;
53309;SDS011;39197;53.200;5.792;2023-06-22T09:44:11;9.07;;;6.97;;
53309;SDS011;39197;53.200;5.792;2023-06-22T09:46:36;7.63;;;6.85;;
53309;SDS011;39197;53.200;5.792;2023-06-22T09:49:02;7.50;;;6.80;;
53309;SDS011;39197;53.200;5.792;2023-06-22T09:51:28;9.00;;;8.10;;
53309;SDS011;39197;53.200;5.792;2023-06-22T09:53:53;9.35;;;8.13;;
53309;SDS011;39197;53.200;5.792;2023-06-22T09:56:19;8.98;;;7.53;;
53309;SDS011;39197;53.200;5.792;2023-06-22T09:58:45;8.93;;;8.07;;
53309;SDS011;39197;53.200;5.792;2023-06-22T10:01:12;8.18;;;6.35;;
53309;SDS011;39197;53.200;5.792;2023-06-22T10:03:41;7.65;;;5.97;;
53309;SDS011;39197;53.200;5.792;2023-06-22T10:06:07;7.88;;;6.80;;
53309;SDS011;39197;53.200;5.792;2023-06-22T10:08:33;7.78;;;6.97;;
53309;SDS011;39197;53.200;5.792;2023-06-22T10:10:59;5.97;;;4.93;;
53309;SDS011;39197;53.200;5.792;2023-06-22T10:13:25;6.95;;;6.05;;
53309;SDS011;39197;53.200;5.792;2023-06-22T10:15:51;8.15;;;6.25;;
53309;SDS011;39197;53.200;5.792;2023-06-22T10:18:20;6.93;;;6.13;;
53309;SDS011;39197;53.200;5.792;2023-06-22T10:20:49;7.70;;;6.93;;
53309;SDS011;39197;53.200;5.792;2023-06-22T10:23:19;7.45;;;6.75;;
53309;SDS011;39197;53.200;5.792;2023-06-22T10:25:45;7.32;;;6.35;;
53309;SDS011;39197;53.200;5.792;2023-06-22T10:28:10;8.48;;;7.25;;
53309;SDS011;39197;53.200;5.792;2023-06-22T10:30:37;9.05;;;6.57;;
53309;SDS011;39197;53.200;5.792;2023-06-22T10:33:07;8.57;;;6.50;;
53309;SDS011;39197;53.200;5.792;2023-06-22T10:35:33;7.15;;;6.45;;
53309;SDS011;39197;53.200;5.792;2023-06-22T10:37:59;8.35;;;7.05;;
53309;SDS011;39197;53.200;5.792;2023-06-22T10:40:25;6.35;;;5.35;;
53309;SDS011;39197;53.200;5.792;2023-06-22T10:42:50;6.13;;;5.53;;
53309;SDS011;39197;53.200;5.792;2023-06-22T10:45:16;6.78;;;6.10;;
53309;SDS011;39197;53.200;5.792;2023-06-22T10:47:42;7.90;;;7.10;;
53309;SDS011;39197;53.200;5.792;2023-06-22T10:50:08;7.13;;;5.90;;
53309;SDS011;39197;53.200;5.792;2023-06-22T10:52:33;6.18;;;5.57;;
53309;SDS011;39197;53.200;5.792;2023-06-22T10:54:59;6.05;;;4.80;;
53309;SDS011;39197;53.200;5.792;2023-06-22T10:57:25;5.50;;;5.00;;
53309;SDS011;39197;53.200;5.792;2023-06-22T10:59:50;6.05;;;5.30;;
53309;SDS011;39197;53.200;5.792;2023-06-22T11:02:16;5.47;;;3.42;;
53309;SDS011;39197;53.200;5.792;2023-06-22T11:04:42;3.75;;;2.92;;
53309;SDS011;39197;53.200;5.792;2023-06-22T11:07:08;5.15;;;4.03;;
53309;SDS011;39197;53.200;5.792;2023-06-22T11:09:34;10.70;;;6.07;;
53309;SDS011;39197;53.200;5.792;2023-06-22T11:12:00;7.63;;;5.10;;
53309;SDS011;39197;53.200;5.792;2023-06-22T11:14:26;6.43;;;3.85;;
53309;SDS011;39197;53.200;5.792;2023-06-22T11:16:52;4.95;;;4.35;;
53309;SDS011;39197;53.200;5.792;2023-06-22T11:19:18;7.32;;;4.70;;
53309;SDS011;39197;53.200;5.792;2023-06-22T11:21:44;5.35;;;4.60;;
53309;SDS011;39197;53.200;5.792;2023-06-22T11:24:09;5.88;;;5.10;;
53309;SDS011;39197;53.200;5.792;2023-06-22T11:26:35;7.57;;;4.32;;
53309;SDS011;39197;53.200;5.792;2023-06-22T11:29:02;6.43;;;4.70;;
53309;SDS011;39197;53.200;5.792;2023-06-22T11:31:30;7.80;;;4.40;;
53309;SDS011;39197;53.200;5.792;2023-06-22T11:33:57;6.90;;;5.85;;
53309;SDS011;39197;53.200;5.792;2023-06-22T11:36:22;9.02;;;8.10;;
53309;SDS011;39197;53.200;5.792;2023-06-22T11:38:48;8.32;;;4.93;;
53309;SDS011;39197;53.200;5.792;2023-06-22T11:41:14;8.52;;;5.28;;
53309;SDS011;39197;53.200;5.792;2023-06-22T11:43:39;5.78;;;3.85;;
53309;SDS011;39197;53.200;5.792;2023-06-22T11:46:05;5.43;;;3.85;;
53309;SDS011;39197;53.200;5.792;2023-06-22T11:48:31;5.78;;;4.57;;
53309;SDS011;39197;53.200;5.792;2023-06-22T11:50:57;7.15;;;4.35;;
53309;SDS011;39197;53.200;5.792;2023-06-22T11:53:24;5.28;;;4.10;;
53309;SDS011;39197;53.200;5.792;2023-06-22T11:55:51;4.70;;;3.55;;
53309;SDS011;39197;53.200;5.792;2023-06-22T11:58:19;5.05;;;3.13;;
53309;SDS011;39197;53.200;5.792;2023-06-22T12:00:44;5.10;;;3.78;;
53309;SDS011;39197;53.200;5.792;2023-06-22T12:03:10;4.72;;;4.03;;
53309;SDS011;39197;53.200;5.792;2023-06-22T12:05:37;5.13;;;4.05;;
53309;SDS011;39197;53.200;5.792;2023-06-22T12:08:03;3.20;;;2.63;;
53309;SDS011;39197;53.200;5.792;2023-06-22T12:10:29;5.10;;;3.53;;
53309;SDS011;39197;53.200;5.792;2023-06-22T12:12:55;5.70;;;3.50;;
53309;SDS011;39197;53.200;5.792;2023-06-22T12:15:22;4.88;;;3.38;;
53309;SDS011;39197;53.200;5.792;2023-06-22T12:17:48;3.70;;;3.10;;
53309;SDS011;39197;53.200;5.792;2023-06-22T12:20:14;6.72;;;2.83;;
53309;SDS011;39197;53.200;5.792;2023-06-22T12:22:40;3.78;;;2.60;;
53309;SDS011;39197;53.200;5.792;2023-06-22T12:25:09;6.57;;;2.90;;
53309;SDS011;39197;53.200;5.792;2023-06-22T12:27:35;3.60;;;2.42;;
53309;SDS011;39197;53.200;5.792;2023-06-22T12:30:01;4.57;;;3.00;;
53309;SDS011;39197;53.200;5.792;2023-06-22T12:32:28;4.25;;;3.50;;
53309;SDS011;39197;53.200;5.792;2023-06-22T12:34:53;2.55;;;2.10;;
53309;SDS011;39197;53.200;5.792;2023-06-22T12:37:20;3.35;;;2.25;;
53309;SDS011;39197;53.200;5.792;2023-06-22T12:39:46;4.15;;;2.30;;
53309;SDS011;39197;53.200;5.792;2023-06-22T12:42:11;2.55;;;1.90;;
53309;SDS011;39197;53.200;5.792;2023-06-22T12:44:40;3.97;;;1.92;;
53309;SDS011;39197;53.200;5.792;2023-06-22T12:47:06;4.82;;;2.00;;
53309;SDS011;39197;53.200;5.792;2023-06-22T12:49:33;2.30;;;2.00;;
53309;SDS011;39197;53.200;5.792;2023-06-22T12:52:00;3.58;;;2.40;;
53309;SDS011;39197;53.200;5.792;2023-06-22T12:54:26;3.08;;;1.80;;
53309;SDS011;39197;53.200;5.792;2023-06-22T12:56:51;3.42;;;2.17;;
53309;SDS011;39197;53.200;5.792;2023-06-22T12:59:17;5.13;;;2.88;;
53309;SDS011;39197;53.200;5.792;2023-06-22T13:01:43;2.80;;;1.42;;
53309;SDS011;39197;53.200;5.792;2023-06-22T13:04:10;2.75;;;1.33;;
53309;SDS011;39197;53.200;5.792;2023-06-22T13:06:40;4.43;;;1.50;;
53309;SDS011;39197;53.200;5.792;2023-06-22T13:09:12;2.42;;;1.63;;
53309;SDS011;39197;53.200;5.792;2023-06-22T13:11:39;2.83;;;1.88;;
53309;SDS011;39197;53.200;5.792;2023-06-22T13:14:04;5.07;;;1.60;;
53309;SDS011;39197;53.200;5.792;2023-06-22T13:16:30;2.80;;;1.02;;
53309;SDS011;39197;53.200;5.792;2023-06-22T13:18:56;2.92;;;1.80;;
53309;SDS011;39197;53.200;5.792;2023-06-22T13:21:21;5.03;;;2.10;;
53309;SDS011;39197;53.200;5.792;2023-06-22T13:23:47;2.40;;;1.17;;
53309;SDS011;39197;53.200;5.792;2023-06-22T13:26:13;2.58;;;1.02;;
53309;SDS011;39197;53.200;5.792;2023-06-22T13:28:38;2.78;;;1.20;;
53309;SDS011;39197;53.200;5.792;2023-06-22T13:31:04;1.80;;;0.98;;
53309;SDS011;39197;53.200;5.792;2023-06-22T13:33:30;3.08;;;1.13;;
53309;SDS011;39197;53.200;5.792;2023-06-22T13:35:56;1.70;;;1.00;;
53309;SDS011;39197;53.200;5.792;2023-06-22T13:38:21;1.77;;;1.10;;
53309;SDS011;39197;53.200;5.792;2023-06-22T13:40:47;2.83;;;1.00;;
53309;SDS011;39197;53.200;5.792;2023-06-22T13:43:14;3.53;;;1.55;;
53309;SDS011;39197;53.200;5.792;2023-06-22T13:45:40;2.83;;;1.92;;
53309;SDS011;39197;53.200;5.792;2023-06-22T13:48:06;8.75;;;4.85;;
53309;SDS011;39197;53.200;5.792;2023-06-22T13:50:32;2.03;;;1.38;;
53309;SDS011;39197;53.200;5.792;2023-06-22T13:52:58;4.18;;;1.88;;
53309;SDS011;39197;53.200;5.792;2023-06-22T13:55:23;1.75;;;0.80;;
53309;SDS011;39197;53.200;5.792;2023-06-22T13:57:49;3.75;;;2.13;;
53309;SDS011;39197;53.200;5.792;2023-06-22T14:00:16;5.15;;;1.63;;
53309;SDS011;39197;53.200;5.792;2023-06-22T14:02:42;2.25;;;1.08;;
53309;SDS011;39197;53.200;5.792;2023-06-22T14:05:08;6.97;;;2.85;;
53309;SDS011;39197;53.200;5.792;2023-06-22T14:07:34;4.40;;;2.17;;
53309;SDS011;39197;53.200;5.792;2023-06-22T14:10:00;3.85;;;1.98;;
53309;SDS011;39197;53.200;5.792;2023-06-22T14:12:25;2.50;;;2.00;;
53309;SDS011;39197;53.200;5.792;2023-06-22T14:14:51;5.90;;;2.40;;
53309;SDS011;39197;53.200;5.792;2023-06-22T14:17:17;6.47;;;2.92;;
53309;SDS011;39197;53.200;5.792;2023-06-22T14:19:48;2.00;;;1.08;;
53309;SDS011;39197;53.200;5.792;2023-06-22T14:22:15;3.65;;;1.30;;
53309;SDS011;39197;53.200;5.792;2023-06-22T14:24:40;6.40;;;2.40;;
53309;SDS011;39197;53.200;5.792;2023-06-22T14:27:06;6.47;;;5.38;;
53309;SDS011;39197;53.200;5.792;2023-06-22T14:29:33;6.32;;;3.33;;
53309;SDS011;39197;53.200;5.792;2023-06-22T14:31:59;3.88;;;1.45;;
53309;SDS011;39197;53.200;5.792;2023-06-22T14:34:25;3.67;;;1.50;;
53309;SDS011;39197;53.200;5.792;2023-06-22T14:36:50;4.18;;;2.33;;
53309;SDS011;39197;53.200;5.792;2023-06-22T14:39:16;2.47;;;1.58;;
53309;SDS011;39197;53.200;5.792;2023-06-22T14:41:41;2.28;;;1.00;;